EGAAEGPF

Guest
Details From EGAA - Belfast Aldergrove
To EGPF - Glasgow
Flight Number -
Tags Generated
Created
Modified
Stats Distance 95 nm / 176 km
Max Altitude 0 ft / 0 m
Waypoints 2
Social Downloads 7
Likes 0
Share VATSIM

Download

Looking for another format? Having issues loading an existing format? Contact us
Advertisement - Login to hide

Notes

Generated

Route

EGAA EGPF

ID Type Via Altitude Latitude Longitude Leg Dist Tot Dist Heading (true) Name
O EGAA APT - 0 ft / 0 m 54.65792˚ -6.22862˚ - 0 nm - -
O EGPF APT - 0 ft / 0 m 55.87222˚ -4.44472˚ 95 nm 95 nm 39° / 41° -

Altitude Profile

Advertisement - Login to hide

EGAA

Details ICAO EGAA (BFS)
Name Belfast Aldergrove
Region United Kingdom
Timezone Europe/London (UTC+1.0)
Stats Elevation 268 ft / 82 m (AMSL)
Location 54.653878° -6.220006°
Runways 2
Magnetic Variation 3.167° W

METAR

EGAA 212220Z 35008KT 310V030 9999 SCT012 SCT016 07/06 Q1022

Decode

TAF

TAF EGAA 211655Z 2118/2218 35012KT 9999 SCT008 BKN015 PROB30 TEMPO 2118/2202 6000 -RADZ BKN007 BECMG 2123/2202 BKN006 PROB30 TEMPO 2202/2208 BKN003 BECMG 2209/2212 BKN012 BECMG 2211/2214 SCT030

Decode

Departure Runways

ID Width Length Bearing (true) Bearing (mag) Surface Threshold Offset Overrun Length
07 148 ft / 45 m 9,095 ft / 2,772 m 65.01° 68.18° Asphalt 0 ft / 0 m 0 ft / 0 m
17 148 ft / 45 m 5,896 ft / 1,797 m 161.98° 165.15° Asphalt 525 ft / 160 m 0 ft / 0 m
25 148 ft / 45 m 9,095 ft / 2,772 m 245.05° 248.22° Asphalt 0 ft / 0 m 0 ft / 0 m
35 148 ft / 45 m 5,896 ft / 1,797 m 341.99° 345.16° Asphalt 502 ft / 153 m 0 ft / 0 m

EGPF

Details ICAO EGPF (GLA)
Name Glasgow
Region United Kingdom
Timezone Europe/London (UTC+1.0)
Stats Elevation 26 ft / 8 m (AMSL)
Location 55.871728° -4.433648°
Runways 1
Magnetic Variation 2.657° W

METAR

EGPF 212220Z AUTO 23004KT 9999 NCD 09/08 Q1021

Decode

TAF

TAF AMD EGPF 211838Z 2118/2218 28007KT 9999 SCT020 TEMPO 2118/2124 BKN012 BECMG 2200/2203 08012KT TEMPO 2200/2208 BKN012 PROB40 TEMPO 2200/2208 6000 -RADZ

Decode

Destination Runways

ID Width Length Bearing (true) Bearing (mag) Surface Threshold Offset Overrun Length
05 151 ft / 46 m 8,721 ft / 2,658 m 46.34° 49.00° Asphalt 0 ft / 0 m 499 ft / 152 m
23 151 ft / 46 m 8,721 ft / 2,658 m 226.37° 229.03° Asphalt 1,004 ft / 306 m 0 ft / 0 m

Approach Navaids

Runway Type Ident Frequency Range Bearing (true) Bearing (mag) Slope Elevation
05 Localiser IUU 110.10 MHz 18 nm / 33 km 46.37° 49.03° - 26 ft / 8 m (AMSL)
05 Glidescope IUU 110.10 MHz 10 nm / 19 km 46.36° 49.01° 3.00° 52 ft / 16 m (AMSL)
05 DME IUU 110.10 MHz 18 nm / 33 km - - - 25 ft / 8 m (AMSL)
23 Localiser IOO 110.10 MHz 18 nm / 33 km 226.33° 228.99° - 26 ft / 8 m (AMSL)
23 Glidescope IOO 110.10 MHz 10 nm / 19 km 226.36° 229.01° 3.00° 50 ft / 15 m (AMSL)
23 DME IOO 110.10 MHz 18 nm / 33 km - - - 25 ft / 8 m (AMSL)

Popular Alternatives